createdAt,value
2023-04-20T00:01:07.792Z,1.87
2023-04-20T00:06:09.448Z,2.03
2023-04-20T00:11:11.132Z,2.23
2023-04-20T00:16:15.399Z,2.10
2023-04-20T00:21:24.083Z,2.17
2023-04-20T00:26:28.024Z,2.20
2023-04-20T00:31:31.646Z,1.77
2023-04-20T00:36:35.672Z,2.03
2023-04-20T00:41:40.003Z,2.13
2023-04-20T00:46:43.864Z,2.50
2023-04-20T00:51:45.595Z,2.80
2023-04-20T00:56:49.734Z,2.30
2023-04-20T01:01:53.984Z,2.20
2023-04-20T01:06:58.850Z,2.00
2023-04-20T01:12:04.957Z,1.90
2023-04-20T01:17:09.667Z,2.20
2023-04-20T01:22:19.577Z,2.13
2023-04-20T01:27:21.319Z,2.23
2023-04-20T01:32:23.182Z,1.90
2023-04-20T01:37:27.476Z,1.93
2023-04-20T01:42:31.452Z,2.00
2023-04-20T01:47:34.223Z,1.90
2023-04-20T01:52:36.147Z,2.40
2023-04-20T01:57:42.174Z,2.37
2023-04-20T02:02:44.080Z,2.00
2023-04-20T02:07:45.912Z,2.10
2023-04-20T02:12:50.293Z,1.87
2023-04-20T02:17:52.552Z,2.13
2023-04-20T02:22:56.749Z,1.80
2023-04-20T02:27:58.550Z,2.03
2023-04-20T02:33:02.552Z,2.10
2023-04-20T02:38:09.191Z,2.13
2023-04-20T02:43:13.521Z,2.00
2023-04-20T02:48:19.494Z,1.83
2023-04-20T02:53:21.561Z,1.90
2023-04-20T02:58:35.029Z,1.70
2023-04-20T03:04:02.797Z,2.13
2023-04-20T03:09:09.501Z,2.23
2023-04-20T03:14:31.461Z,1.77
2023-04-20T03:19:36.707Z,1.73
2023-04-20T03:24:43.948Z,1.90
2023-04-20T03:29:58.876Z,1.90
2023-04-20T03:35:02.963Z,2.30
2023-04-20T03:40:11.146Z,1.87
2023-04-20T03:45:15.684Z,1.70
2023-04-20T03:50:21.986Z,1.60
2023-04-20T03:55:26.514Z,2.00
2023-04-20T04:00:36.638Z,1.83
2023-04-20T04:05:44.194Z,1.73
2023-04-20T04:10:45.951Z,1.90
2023-04-20T04:15:50.043Z,1.93
2023-04-20T04:20:54.571Z,2.20
2023-04-20T04:25:58.773Z,1.73
2023-04-20T04:31:06.083Z,1.93
2023-04-20T04:36:09.478Z,1.83
2023-04-20T04:41:14.513Z,1.73
2023-04-20T04:46:21.607Z,2.40
2023-04-20T04:51:25.903Z,1.97
2023-04-20T04:56:28.515Z,2.00
2023-04-20T05:01:32.508Z,2.35
2023-04-20T05:06:36.534Z,2.10
2023-04-20T05:11:45.485Z,1.80
2023-04-20T05:16:47.293Z,1.73
2023-04-20T05:21:49.140Z,1.83
2023-04-20T05:26:50.829Z,2.07
2023-04-20T05:31:52.547Z,2.20
2023-04-20T05:36:58.786Z,2.20
2023-04-20T05:42:03.055Z,2.20
2023-04-20T05:47:09.837Z,2.20
2023-04-20T05:52:13.816Z,2.80
2023-04-20T05:57:15.661Z,2.50
2023-04-20T06:02:19.468Z,3.10
2023-04-20T06:07:25.954Z,3.23
2023-04-20T06:12:30.805Z,3.00
2023-04-20T06:17:35.256Z,2.93
2023-04-20T06:22:39.785Z,2.70
2023-04-20T06:27:46.644Z,2.87
2023-04-20T06:32:48.384Z,2.83
2023-04-20T06:37:50.049Z,3.00
2023-04-20T06:42:51.722Z,3.27
2023-04-20T06:47:55.276Z,2.93
2023-04-20T06:52:59.349Z,3.50
2023-04-20T06:58:01.343Z,3.47
2023-04-20T07:03:05.420Z,3.37
2023-04-20T07:08:09.682Z,3.63
2023-04-20T07:13:16.505Z,3.60
2023-04-20T07:18:20.528Z,3.77
2023-04-20T07:23:24.531Z,4.00
2023-04-20T07:28:26.305Z,4.23
2023-04-20T07:33:29.861Z,3.90
2023-04-20T07:38:34.063Z,3.83
2023-04-20T07:43:35.792Z,4.20
2023-04-20T07:48:37.560Z,4.23
2023-04-20T07:53:42.238Z,4.57
2023-04-20T07:58:46.610Z,4.80
2023-04-20T08:03:50.826Z,4.97
2023-04-20T08:08:54.814Z,5.23
2023-04-20T08:14:01.916Z,4.60
2023-04-20T08:24:21.884Z,7.17
2023-04-20T08:29:23.544Z,8.90
2023-04-20T08:34:27.796Z,6.63
2023-04-20T08:39:30.470Z,7.63
2023-04-20T08:44:35.028Z,7.20
2023-04-20T08:49:41.302Z,6.30
2023-04-20T08:54:56.093Z,6.03
2023-04-20T09:00:07.926Z,5.60
2023-04-20T09:05:12.303Z,5.80
2023-04-20T09:10:16.309Z,6.00
2023-04-20T09:15:28.382Z,7.07
2023-04-20T09:20:31.942Z,8.80
2023-04-20T09:25:38.741Z,7.47
2023-04-20T09:30:45.770Z,7.47
2023-04-20T09:35:49.993Z,6.23
2023-04-20T09:40:54.033Z,6.80
2023-04-20T09:45:58.106Z,6.10
2023-04-20T09:51:03.314Z,5.90
2023-04-20T09:56:07.875Z,6.03
2023-04-20T10:01:11.041Z,7.50
2023-04-20T10:06:24.568Z,6.73
2023-04-20T10:11:48.811Z,7.07
2023-04-20T10:17:02.449Z,6.43
2023-04-20T10:22:06.846Z,6.30
2023-04-20T10:27:19.349Z,6.30
2023-04-20T10:32:28.958Z,6.87
2023-04-20T10:37:32.022Z,5.70
2023-04-20T10:42:43.849Z,5.97
2023-04-20T10:47:45.951Z,7.60
2023-04-20T10:52:49.718Z,9.00
2023-04-20T10:57:54.085Z,9.13
2023-04-20T11:02:57.175Z,7.68
2023-04-20T11:08:01.432Z,6.70
2023-04-20T11:13:05.483Z,5.78
2023-04-20T11:18:08.589Z,6.57
2023-04-20T11:23:12.539Z,6.35
2023-04-20T11:28:17.098Z,5.47
2023-04-20T11:33:29.313Z,5.75
2023-04-20T11:38:33.002Z,5.80
2023-04-20T11:43:38.397Z,5.35
2023-04-20T11:48:40.259Z,6.30
2023-04-20T11:53:46.701Z,5.90
2023-04-20T11:58:50.933Z,6.15
2023-04-20T12:03:55.638Z,5.70
2023-04-20T12:08:57.957Z,5.07
2023-04-20T12:14:02.047Z,4.68
2023-04-20T12:19:05.960Z,5.47
2023-04-20T12:24:07.928Z,5.18
2023-04-20T12:29:12.904Z,5.47
2023-04-20T12:34:19.289Z,5.47
2023-04-20T12:39:21.902Z,4.72
2023-04-20T12:44:26.661Z,5.15
2023-04-20T12:49:33.159Z,5.15
2023-04-20T12:54:35.466Z,5.20
2023-04-20T12:59:39.689Z,5.18
2023-04-20T13:04:41.609Z,5.15
2023-04-20T13:09:43.665Z,5.30
2023-04-20T13:14:47.662Z,5.95
2023-04-20T13:19:49.839Z,6.30
2023-04-20T13:24:53.749Z,7.00
2023-04-20T13:29:55.777Z,5.65
2023-04-20T13:34:58.113Z,5.75
2023-04-20T13:40:00.398Z,6.38
2023-04-20T13:45:02.500Z,6.63
2023-04-20T13:50:06.941Z,7.30
2023-04-20T13:55:09.314Z,10.18
2023-04-20T14:00:11.628Z,9.07
2023-04-20T14:05:15.680Z,7.93
2023-04-20T14:10:17.399Z,7.90
2023-04-20T14:15:21.914Z,7.50
2023-04-20T14:20:23.882Z,8.20
2023-04-20T14:25:28.209Z,7.07
2023-04-20T14:30:32.423Z,7.68
2023-04-20T14:35:34.322Z,8.50
2023-04-20T14:40:38.427Z,7.93
2023-04-20T14:45:45.633Z,7.60
2023-04-20T14:50:49.612Z,8.43
2023-04-20T14:55:51.458Z,8.80
2023-04-20T15:00:54.694Z,9.00
2023-04-20T15:06:00.787Z,9.63
2023-04-20T15:11:09.864Z,9.82
2023-04-20T15:16:11.917Z,10.43
2023-04-20T15:21:16.111Z,11.60
2023-04-20T15:26:20.984Z,10.82
2023-04-20T15:31:22.811Z,10.82
2023-04-20T15:36:24.630Z,10.77
2023-04-20T15:41:28.661Z,10.13
2023-04-20T15:46:30.527Z,9.68
2023-04-20T15:51:32.455Z,9.93
2023-04-20T15:56:34.193Z,9.40
2023-04-20T16:01:38.413Z,8.98
2023-04-20T16:06:42.330Z,9.47
2023-04-20T16:11:44.191Z,9.10
2023-04-20T16:16:46.061Z,8.82
2023-04-20T16:21:50.321Z,9.50
2023-04-20T16:26:56.772Z,9.60
2023-04-20T16:31:58.609Z,9.60
2023-04-20T16:37:02.553Z,11.15
2023-04-20T16:42:08.688Z,11.07
2023-04-20T16:47:10.524Z,11.35
2023-04-20T16:52:12.322Z,12.00
2023-04-20T16:57:17.512Z,12.25
2023-04-20T17:02:21.753Z,12.88
2023-04-20T17:07:23.879Z,12.05
2023-04-20T17:12:30.393Z,12.73
2023-04-20T17:17:32.881Z,12.88
2023-04-20T17:22:35.535Z,13.27
2023-04-20T17:27:37.250Z,13.57
2023-04-20T17:32:39.100Z,13.85
2023-04-20T17:37:43.140Z,13.07
2023-04-20T17:42:47.476Z,15.50
2023-04-20T17:47:53.549Z,14.55
2023-04-20T17:52:55.624Z,14.85
2023-04-20T17:57:57.373Z,14.15
2023-04-20T18:03:01.433Z,14.43
2023-04-20T18:08:06.697Z,14.77
2023-04-20T18:13:11.940Z,16.13
2023-04-20T18:18:13.860Z,15.83
2023-04-20T18:23:15.742Z,22.13
2023-04-20T18:28:17.675Z,20.07
2023-04-20T18:33:24.392Z,16.50
2023-04-20T18:38:26.062Z,16.43
2023-04-20T18:43:32.538Z,16.45
2023-04-20T18:48:34.291Z,18.05
2023-04-20T18:53:38.511Z,16.27
2023-04-20T18:58:40.257Z,16.77
2023-04-20T19:03:45.517Z,15.93
2023-04-20T19:08:55.300Z,16.30
2023-04-20T19:13:57.204Z,15.30
2023-04-20T19:18:59.545Z,15.63
2023-04-20T19:24:03.743Z,16.35
2023-04-20T19:29:08.676Z,15.07
2023-04-20T19:34:13.486Z,16.73
2023-04-20T19:39:20.456Z,16.07
2023-04-20T19:44:24.625Z,17.67
2023-04-20T19:49:26.928Z,16.27
2023-04-20T19:54:28.691Z,15.40
2023-04-20T19:59:32.769Z,15.73
2023-04-20T20:04:38.045Z,16.03
2023-04-20T20:09:44.913Z,16.23
2023-04-20T20:14:46.636Z,14.83
2023-04-20T20:19:53.782Z,15.00
2023-04-20T20:25:01.205Z,16.23
2023-04-20T20:30:08.144Z,15.97
2023-04-20T20:35:11.640Z,16.73
2023-04-20T20:40:16.661Z,16.53
2023-04-20T20:45:18.480Z,17.80
2023-04-20T20:50:20.795Z,16.80
2023-04-20T20:55:22.546Z,16.33
2023-04-20T21:00:24.474Z,16.67
2023-04-20T21:05:26.174Z,15.30
2023-04-20T21:10:27.897Z,14.83
2023-04-20T21:15:34.194Z,14.33
2023-04-20T21:20:35.869Z,15.33
2023-04-20T21:25:37.618Z,14.33
2023-04-20T21:30:39.359Z,13.77
2023-04-20T21:35:43.312Z,15.33
2023-04-20T21:40:45.033Z,14.93
2023-04-20T21:45:46.720Z,14.80
2023-04-20T21:50:48.481Z,14.87
2023-04-20T21:55:52.415Z,14.70
2023-04-20T22:00:54.091Z,15.17
2023-04-20T22:05:58.994Z,15.13
2023-04-20T22:11:00.722Z,14.70
2023-04-20T22:16:05.050Z,14.67
2023-04-20T22:21:09.162Z,16.40
2023-04-20T22:26:10.893Z,16.60
2023-04-20T22:31:14.974Z,15.93
2023-04-20T22:36:20.367Z,16.07
2023-04-20T22:41:22.124Z,15.40
2023-04-20T22:46:23.789Z,15.67
2023-04-20T22:51:29.047Z,15.93
2023-04-20T22:56:35.539Z,15.23
2023-04-20T23:01:42.912Z,16.00
2023-04-20T23:06:47.298Z,14.70
2023-04-20T23:11:49.075Z,16.03
2023-04-20T23:16:51.089Z,15.70
2023-04-20T23:21:55.229Z,15.30
2023-04-20T23:27:00.278Z,15.90
2023-04-20T23:32:04.215Z,14.87
2023-04-20T23:37:08.130Z,15.93
2023-04-20T23:42:12.010Z,16.60
2023-04-20T23:47:17.600Z,15.57
2023-04-20T23:52:19.268Z,16.27
2023-04-20T23:57:23.005Z,17.00
